createdAt,value
2022-12-29T00:02:50.881Z,5.87
2022-12-29T00:07:54.708Z,5.84
2022-12-29T00:13:16.890Z,5.85
2022-12-29T00:18:21.059Z,5.89
2022-12-29T00:23:44.177Z,5.91
2022-12-29T00:29:06.809Z,5.91
2022-12-29T00:34:31.368Z,5.90
2022-12-29T00:39:53.911Z,5.93
2022-12-29T00:44:57.811Z,6.00
2022-12-29T00:50:01.662Z,6.08
2022-12-29T00:55:05.671Z,6.14
2022-12-29T01:00:11.212Z,6.19
2022-12-29T01:05:15.065Z,6.24
2022-12-29T01:10:18.874Z,6.26
2022-12-29T01:15:22.925Z,6.27
2022-12-29T01:20:29.010Z,6.28
2022-12-29T01:25:34.030Z,6.27
2022-12-29T01:30:37.783Z,6.25
2022-12-29T01:35:41.608Z,6.20
2022-12-29T01:40:47.390Z,6.17
2022-12-29T01:45:53.399Z,6.14
2022-12-29T01:50:57.257Z,6.09
2022-12-29T01:56:04.571Z,6.02
2022-12-29T02:01:08.528Z,5.96
2022-12-29T02:06:19.926Z,5.89
2022-12-29T02:11:27.638Z,5.85
2022-12-29T02:16:41.966Z,5.82
2022-12-29T02:21:51.248Z,5.75
2022-12-29T02:27:33.115Z,5.66
2022-12-29T02:32:49.919Z,5.58
2022-12-29T02:38:09.210Z,5.51
2022-12-29T02:43:25.211Z,5.47
2022-12-29T02:48:46.510Z,5.49
2022-12-29T02:54:08.831Z,5.51
2022-12-29T02:59:14.128Z,5.55
2022-12-29T03:04:46.536Z,5.59
2022-12-29T03:09:54.882Z,5.69
2022-12-29T03:15:22.499Z,5.80
2022-12-29T03:20:31.050Z,5.93
2022-12-29T03:25:40.420Z,6.02
2022-12-29T03:30:47.456Z,6.10
2022-12-29T03:35:53.920Z,6.19
2022-12-29T03:41:00.131Z,6.23
2022-12-29T03:46:04.827Z,6.23
2022-12-29T03:51:09.462Z,6.19
2022-12-29T03:56:13.332Z,6.14
2022-12-29T04:01:18.782Z,6.10
2022-12-29T04:06:22.905Z,6.07
2022-12-29T04:11:33.356Z,6.05
2022-12-29T04:16:40.266Z,6.05
2022-12-29T04:21:44.845Z,6.05
2022-12-29T04:26:48.546Z,6.08
2022-12-29T04:32:12.621Z,6.13
2022-12-29T04:37:22.461Z,6.19
2022-12-29T04:42:26.940Z,6.25
2022-12-29T04:47:31.740Z,6.30
2022-12-29T04:52:55.972Z,6.37
2022-12-29T04:58:00.452Z,6.43
2022-12-29T05:03:07.183Z,6.48
2022-12-29T05:08:12.985Z,6.54
2022-12-29T05:13:19.539Z,6.60
2022-12-29T05:18:24.631Z,6.67
2022-12-29T05:23:28.501Z,6.73
2022-12-29T05:28:36.903Z,6.78
2022-12-29T05:33:55.125Z,6.79
2022-12-29T05:38:58.949Z,6.79
2022-12-29T05:44:03.769Z,6.80
2022-12-29T05:49:22.604Z,6.78
2022-12-29T05:54:49.521Z,6.76
2022-12-29T05:59:56.728Z,6.78
2022-12-29T06:05:01.012Z,6.82
2022-12-29T06:10:07.306Z,6.89
2022-12-29T06:15:19.560Z,6.96
2022-12-29T06:20:25.910Z,7.00
2022-12-29T06:25:32.248Z,7.03
2022-12-29T06:30:36.208Z,7.04
2022-12-29T06:35:40.345Z,7.06
2022-12-29T06:40:46.422Z,7.05
2022-12-29T06:46:09.109Z,7.04
2022-12-29T06:51:13.021Z,7.05
2022-12-29T06:56:16.803Z,7.08
2022-12-29T07:01:20.840Z,7.12
2022-12-29T07:06:24.922Z,7.17
2022-12-29T07:11:29.101Z,7.23
2022-12-29T07:16:34.194Z,7.24
2022-12-29T07:21:38.069Z,7.24
2022-12-29T07:26:42.950Z,7.23
2022-12-29T07:31:46.857Z,7.26
2022-12-29T07:36:50.916Z,7.30
2022-12-29T07:41:57.161Z,7.34
2022-12-29T07:47:11.036Z,7.38
2022-12-29T07:52:14.930Z,7.43
2022-12-29T07:57:18.763Z,7.46
2022-12-29T08:02:22.923Z,7.52
2022-12-29T08:07:27.864Z,7.59
2022-12-29T08:12:31.641Z,7.70
2022-12-29T08:17:35.485Z,7.84
2022-12-29T08:22:39.247Z,8.00
2022-12-29T08:27:43.084Z,8.15
2022-12-29T08:32:46.800Z,8.25
2022-12-29T08:37:50.527Z,8.30
2022-12-29T08:42:54.292Z,8.38
2022-12-29T08:47:58.106Z,8.53
2022-12-29T08:53:01.988Z,8.67
2022-12-29T08:58:05.733Z,8.78
2022-12-29T09:03:12.408Z,8.86
2022-12-29T09:08:20.887Z,8.92
2022-12-29T09:13:27.587Z,9.01
2022-12-29T09:18:31.626Z,9.13
2022-12-29T09:23:35.926Z,9.31
2022-12-29T09:28:39.930Z,9.45
2022-12-29T09:33:45.994Z,9.59
2022-12-29T09:38:49.765Z,9.76
2022-12-29T09:44:02.548Z,9.90
2022-12-29T09:49:30.483Z,10.00
2022-12-29T09:55:00.527Z,10.05
2022-12-29T10:00:24.462Z,10.10
2022-12-29T10:06:09.845Z,10.13
2022-12-29T10:11:33.538Z,10.20
2022-12-29T10:17:03.998Z,10.31
2022-12-29T10:22:26.275Z,10.47
2022-12-29T10:27:33.444Z,10.54
2022-12-29T10:32:41.111Z,10.52
2022-12-29T10:37:54.820Z,10.51
2022-12-29T10:42:59.658Z,10.50
2022-12-29T10:48:07.791Z,10.58
2022-12-29T10:53:20.831Z,10.67
2022-12-29T10:58:24.389Z,10.77
2022-12-29T11:03:46.413Z,10.87
2022-12-29T11:08:56.477Z,10.93
2022-12-29T11:14:28.211Z,11.02
2022-12-29T11:19:39.171Z,11.15
2022-12-29T11:24:47.108Z,11.25
2022-12-29T11:29:52.392Z,11.38
2022-12-29T11:34:56.467Z,11.48
2022-12-29T11:40:06.881Z,11.61
2022-12-29T11:45:22.544Z,11.67
2022-12-29T11:50:30.822Z,11.72
2022-12-29T11:55:35.002Z,11.80
2022-12-29T12:00:41.668Z,11.83
2022-12-29T12:05:57.984Z,11.79
2022-12-29T12:11:04.653Z,11.66
2022-12-29T12:16:20.588Z,11.49
2022-12-29T12:21:39.249Z,11.33
2022-12-29T12:26:57.777Z,11.14
2022-12-29T12:32:13.404Z,10.90
2022-12-29T12:37:23.081Z,10.71
2022-12-29T12:42:39.237Z,10.56
2022-12-29T12:47:52.973Z,10.41
2022-12-29T12:53:02.884Z,10.28
2022-12-29T12:58:12.757Z,10.17
2022-12-29T13:03:55.341Z,10.07
2022-12-29T13:09:10.468Z,10.05
2022-12-29T13:14:23.174Z,10.09
2022-12-29T13:19:37.866Z,10.15
2022-12-29T13:25:08.870Z,10.26
2022-12-29T13:30:24.020Z,10.41
2022-12-29T13:35:50.264Z,10.52
2022-12-29T13:41:02.246Z,10.64
2022-12-29T13:46:20.497Z,10.77
2022-12-29T13:51:27.955Z,10.89
2022-12-29T13:56:35.185Z,10.98
2022-12-29T14:01:48.764Z,11.00
2022-12-29T14:07:04.889Z,11.00
2022-12-29T14:12:39.509Z,10.92
2022-12-29T14:17:43.883Z,10.81
2022-12-29T14:22:59.669Z,10.71
2022-12-29T14:28:17.416Z,10.61
2022-12-29T14:33:23.191Z,10.43
2022-12-29T14:38:29.242Z,10.20
2022-12-29T14:43:33.007Z,9.96
2022-12-29T14:48:46.004Z,9.76
2022-12-29T14:53:51.124Z,9.53
2022-12-29T14:58:58.196Z,9.29
2022-12-29T15:04:15.026Z,9.01
2022-12-29T15:09:26.612Z,8.73
2022-12-29T15:14:49.426Z,8.49
2022-12-29T15:19:54.189Z,8.31
2022-12-29T15:24:58.562Z,8.19
2022-12-29T15:30:05.116Z,8.08
2022-12-29T15:35:35.857Z,7.97
2022-12-29T15:40:39.824Z,7.86
2022-12-29T15:45:43.919Z,7.74
2022-12-29T15:50:48.960Z,7.62
2022-12-29T15:55:55.970Z,7.49
2022-12-29T16:01:03.916Z,7.40
2022-12-29T16:06:33.286Z,7.27
2022-12-29T16:11:40.751Z,7.15
2022-12-29T16:16:46.151Z,7.08
2022-12-29T16:21:50.331Z,7.01
2022-12-29T16:27:04.003Z,6.97
2022-12-29T16:32:29.193Z,6.95
2022-12-29T16:37:35.627Z,6.93
2022-12-29T16:42:47.095Z,6.90
2022-12-29T16:48:06.986Z,6.88
2022-12-29T16:53:25.508Z,6.89
2022-12-29T16:58:33.066Z,6.88
2022-12-29T17:03:43.062Z,6.89
2022-12-29T17:08:48.143Z,6.87
2022-12-29T17:13:51.860Z,6.84
2022-12-29T17:44:38.951Z,7.09
2022-12-29T17:50:16.598Z,7.09
2022-12-29T17:55:53.664Z,7.07
2022-12-29T18:01:36.319Z,7.07
2022-12-29T18:07:15.632Z,7.06
2022-12-29T18:12:54.679Z,7.08
2022-12-29T18:18:34.676Z,7.15
2022-12-29T18:24:11.823Z,7.23
2022-12-29T18:29:48.661Z,7.28
2022-12-29T18:35:53.653Z,7.27
2022-12-29T18:41:33.673Z,7.20
2022-12-29T18:47:10.858Z,7.05
2022-12-29T18:52:47.543Z,6.88
2022-12-29T18:58:29.226Z,6.72
2022-12-29T19:04:10.622Z,6.59
2022-12-29T19:09:47.594Z,6.55
2022-12-29T19:15:30.635Z,6.54
2022-12-29T19:21:08.569Z,6.55
2022-12-29T19:26:47.554Z,6.58
2022-12-29T19:32:24.867Z,6.61
2022-12-29T19:38:02.656Z,6.57
2022-12-29T19:43:39.522Z,6.50
2022-12-29T19:49:16.499Z,6.46
2022-12-29T19:54:53.639Z,6.41
2022-12-29T20:00:30.713Z,6.40
2022-12-29T20:06:07.608Z,6.37
2022-12-29T20:11:44.645Z,6.35
2022-12-29T20:17:32.513Z,6.32
2022-12-29T20:23:15.671Z,6.29
2022-12-29T20:28:52.992Z,6.28
2022-12-29T20:34:36.613Z,6.28
2022-12-29T20:40:13.659Z,6.26
2022-12-29T20:45:50.794Z,6.16
2022-12-29T20:51:27.893Z,6.04
2022-12-29T20:57:04.654Z,6.01
2022-12-29T21:16:05.767Z,6.00
2022-12-29T21:21:42.721Z,6.05
2022-12-29T21:27:19.654Z,6.05
2022-12-29T21:32:56.644Z,6.01
2022-12-29T21:38:38.658Z,5.94
2022-12-29T21:44:35.069Z,5.84
2022-12-29T21:50:11.778Z,5.69
2022-12-29T21:55:48.710Z,5.59
2022-12-29T22:01:45.888Z,5.55
2022-12-29T22:07:42.673Z,5.48
2022-12-29T22:13:19.798Z,5.42
2022-12-29T22:18:56.707Z,5.37
2022-12-29T22:24:33.731Z,5.37
2022-12-29T22:30:10.752Z,5.36
2022-12-29T22:35:47.757Z,5.37
2022-12-29T22:41:24.708Z,5.34
2022-12-29T22:47:01.691Z,5.35
2022-12-29T22:52:38.616Z,5.43
2022-12-29T22:58:16.668Z,5.55
2022-12-29T23:04:05.915Z,5.70
2022-12-29T23:09:50.869Z,5.80
2022-12-29T23:15:27.730Z,5.90
2022-12-29T23:21:04.684Z,6.00
2022-12-29T23:26:48.749Z,6.06
2022-12-29T23:32:25.627Z,6.06
2022-12-29T23:38:02.728Z,6.01
2022-12-29T23:43:39.732Z,5.94
2022-12-29T23:49:16.679Z,5.90
2022-12-29T23:54:53.746Z,5.92
